Terminal Aerodrome Forecast
Issued by NWS

Home | Current Version | Previous Version | Text Only | Print | Product List | Glossary On
Versions: 1 2 3 4 5 6 7 8 9 10 11 12 13 14 15 16 17 18 19 20
000
FTUS45 KTFX 171100
TAFLWT
TAF
KLWT 171131Z 1712/1812 12008KT P6SM SCT070 BKN110
     FM171700 24011KT P6SM SCT060 BKN090
     FM180000 13008KT P6SM SCT050 BKN080=

USA.gov is the U.S. government's official web portal to all federal, state and local government web resources and services.